sensor_id;sensor_type;location;lat;lon;timestamp;temperature;humidity
21772;DHT22;11047;47.904;8.110;2022-07-18T00:02:07;13.30;99.90
21772;DHT22;11047;47.904;8.110;2022-07-18T00:04:34;13.30;99.90
21772;DHT22;11047;47.904;8.110;2022-07-18T00:07:01;13.30;99.90
21772;DHT22;11047;47.904;8.110;2022-07-18T00:09:28;13.20;99.90
21772;DHT22;11047;47.904;8.110;2022-07-18T00:11:55;13.20;99.90
21772;DHT22;11047;47.904;8.110;2022-07-18T00:14:22;13.00;99.90
21772;DHT22;11047;47.904;8.110;2022-07-18T00:16:49;13.00;99.90
21772;DHT22;11047;47.904;8.110;2022-07-18T00:19:18;13.00;99.90
21772;DHT22;11047;47.904;8.110;2022-07-18T00:21:45;12.90;99.90
21772;DHT22;11047;47.904;8.110;2022-07-18T00:24:11;13.00;99.90
21772;DHT22;11047;47.904;8.110;2022-07-18T00:26:38;13.00;99.90
21772;DHT22;11047;47.904;8.110;2022-07-18T00:29:05;12.90;99.90
21772;DHT22;11047;47.904;8.110;2022-07-18T00:31:33;12.80;99.90
21772;DHT22;11047;47.904;8.110;2022-07-18T00:34:00;12.80;99.90
21772;DHT22;11047;47.904;8.110;2022-07-18T00:36:29;12.70;99.90
21772;DHT22;11047;47.904;8.110;2022-07-18T00:38:56;12.60;99.90
21772;DHT22;11047;47.904;8.110;2022-07-18T00:41:23;12.60;99.90
21772;DHT22;11047;47.904;8.110;2022-07-18T00:43:51;12.60;99.90
21772;DHT22;11047;47.904;8.110;2022-07-18T00:46:21;12.60;99.90
21772;DHT22;11047;47.904;8.110;2022-07-18T00:48:48;12.70;99.90
21772;DHT22;11047;47.904;8.110;2022-07-18T00:51:15;12.70;99.90
21772;DHT22;11047;47.904;8.110;2022-07-18T01:09:09;12.50;99.90
21772;DHT22;11047;47.904;8.110;2022-07-18T01:11:37;12.50;99.90
21772;DHT22;11047;47.904;8.110;2022-07-18T01:14:05;12.30;99.90
21772;DHT22;11047;47.904;8.110;2022-07-18T01:16:33;12.20;99.90
21772;DHT22;11047;47.904;8.110;2022-07-18T01:19:01;12.10;99.90
21772;DHT22;11047;47.904;8.110;2022-07-18T01:21:29;12.00;99.90
21772;DHT22;11047;47.904;8.110;2022-07-18T01:23:56;12.00;99.90
21772;DHT22;11047;47.904;8.110;2022-07-18T01:26:23;12.10;99.90
21772;DHT22;11047;47.904;8.110;2022-07-18T01:28:50;12.00;99.90
21772;DHT22;11047;47.904;8.110;2022-07-18T01:31:17;12.20;99.90
21772;DHT22;11047;47.904;8.110;2022-07-18T01:33:44;12.20;99.90
21772;DHT22;11047;47.904;8.110;2022-07-18T01:36:11;12.20;99.90
21772;DHT22;11047;47.904;8.110;2022-07-18T01:38:39;12.10;99.90
21772;DHT22;11047;47.904;8.110;2022-07-18T01:41:07;12.10;99.90
21772;DHT22;11047;47.904;8.110;2022-07-18T01:43:34;12.10;99.90
21772;DHT22;11047;47.904;8.110;2022-07-18T01:46:03;12.00;99.90
21772;DHT22;11047;47.904;8.110;2022-07-18T01:48:30;12.00;99.90
21772;DHT22;11047;47.904;8.110;2022-07-18T01:50:57;11.90;99.90
21772;DHT22;11047;47.904;8.110;2022-07-18T01:53:24;11.90;99.90
21772;DHT22;11047;47.904;8.110;2022-07-18T01:55:53;11.80;99.90
21772;DHT22;11047;47.904;8.110;2022-07-18T01:58:20;11.80;99.90
21772;DHT22;11047;47.904;8.110;2022-07-18T02:00:46;11.70;99.90
21772;DHT22;11047;47.904;8.110;2022-07-18T02:03:13;11.70;99.90
21772;DHT22;11047;47.904;8.110;2022-07-18T02:05:40;11.70;99.90
21772;DHT22;11047;47.904;8.110;2022-07-18T02:08:07;11.70;99.90
21772;DHT22;11047;47.904;8.110;2022-07-18T02:10:35;11.70;99.90
21772;DHT22;11047;47.904;8.110;2022-07-18T02:13:03;11.70;99.90
21772;DHT22;11047;47.904;8.110;2022-07-18T02:15:30;11.70;99.90
21772;DHT22;11047;47.904;8.110;2022-07-18T02:17:57;11.70;99.90
21772;DHT22;11047;47.904;8.110;2022-07-18T02:20:24;11.70;99.90
21772;DHT22;11047;47.904;8.110;2022-07-18T02:22:51;11.70;99.90
21772;DHT22;11047;47.904;8.110;2022-07-18T02:25:18;11.60;99.90
21772;DHT22;11047;47.904;8.110;2022-07-18T02:27:45;11.60;99.90
21772;DHT22;11047;47.904;8.110;2022-07-18T02:30:13;11.40;99.90
21772;DHT22;11047;47.904;8.110;2022-07-18T02:32:40;11.20;99.90
21772;DHT22;11047;47.904;8.110;2022-07-18T02:35:08;11.20;99.90
21772;DHT22;11047;47.904;8.110;2022-07-18T02:37:35;11.30;99.90
21772;DHT22;11047;47.904;8.110;2022-07-18T02:40:05;11.40;99.90
21772;DHT22;11047;47.904;8.110;2022-07-18T02:42:33;11.30;99.90
21772;DHT22;11047;47.904;8.110;2022-07-18T02:45:00;11.30;99.90
21772;DHT22;11047;47.904;8.110;2022-07-18T02:47:28;11.30;99.90
21772;DHT22;11047;47.904;8.110;2022-07-18T02:49:55;11.30;99.90
21772;DHT22;11047;47.904;8.110;2022-07-18T02:52:22;11.20;99.90
21772;DHT22;11047;47.904;8.110;2022-07-18T02:54:49;11.20;99.90
21772;DHT22;11047;47.904;8.110;2022-07-18T02:57:16;11.20;99.90
21772;DHT22;11047;47.904;8.110;2022-07-18T02:59:43;11.20;99.90
21772;DHT22;11047;47.904;8.110;2022-07-18T03:02:11;11.10;99.90
21772;DHT22;11047;47.904;8.110;2022-07-18T03:04:39;11.00;99.90
21772;DHT22;11047;47.904;8.110;2022-07-18T03:07:06;11.10;99.90
21772;DHT22;11047;47.904;8.110;2022-07-18T03:09:33;11.10;99.90
21772;DHT22;11047;47.904;8.110;2022-07-18T03:12:00;11.10;99.90
21772;DHT22;11047;47.904;8.110;2022-07-18T03:14:27;11.10;99.90
21772;DHT22;11047;47.904;8.110;2022-07-18T03:16:54;11.00;99.90
21772;DHT22;11047;47.904;8.110;2022-07-18T03:19:21;10.90;99.90
21772;DHT22;11047;47.904;8.110;2022-07-18T03:21:49;10.80;99.90
21772;DHT22;11047;47.904;8.110;2022-07-18T03:24:16;10.80;99.90
21772;DHT22;11047;47.904;8.110;2022-07-18T03:26:43;10.70;99.90
21772;DHT22;11047;47.904;8.110;2022-07-18T03:29:11;10.70;99.90
21772;DHT22;11047;47.904;8.110;2022-07-18T03:31:38;10.70;99.90
21772;DHT22;11047;47.904;8.110;2022-07-18T03:34:05;10.80;99.90
21772;DHT22;11047;47.904;8.110;2022-07-18T03:36:32;10.80;99.90
21772;DHT22;11047;47.904;8.110;2022-07-18T03:39:01;10.90;99.90
21772;DHT22;11047;47.904;8.110;2022-07-18T03:41:28;10.90;99.90
21772;DHT22;11047;47.904;8.110;2022-07-18T03:43:54;10.90;99.90
21772;DHT22;11047;47.904;8.110;2022-07-18T03:46:22;10.80;99.90
21772;DHT22;11047;47.904;8.110;2022-07-18T03:48:49;10.80;99.90
21772;DHT22;11047;47.904;8.110;2022-07-18T03:51:16;10.80;99.90
21772;DHT22;11047;47.904;8.110;2022-07-18T03:53:43;10.70;99.90
21772;DHT22;11047;47.904;8.110;2022-07-18T03:56:11;10.70;99.90
21772;DHT22;11047;47.904;8.110;2022-07-18T03:58:38;10.60;99.90
21772;DHT22;11047;47.904;8.110;2022-07-18T04:01:05;10.70;99.90
21772;DHT22;11047;47.904;8.110;2022-07-18T04:03:32;10.60;99.90
21772;DHT22;11047;47.904;8.110;2022-07-18T04:05:59;10.60;99.90
21772;DHT22;11047;47.904;8.110;2022-07-18T04:08:26;10.70;99.90
21772;DHT22;11047;47.904;8.110;2022-07-18T04:10:52;10.60;99.90
21772;DHT22;11047;47.904;8.110;2022-07-18T04:13:21;10.60;99.90
21772;DHT22;11047;47.904;8.110;2022-07-18T04:15:47;10.70;99.90
21772;DHT22;11047;47.904;8.110;2022-07-18T04:18:14;10.60;99.90
21772;DHT22;11047;47.904;8.110;2022-07-18T04:20:41;10.60;99.90
21772;DHT22;11047;47.904;8.110;2022-07-18T04:23:09;10.60;99.90
21772;DHT22;11047;47.904;8.110;2022-07-18T04:25:38;10.70;99.90
21772;DHT22;11047;47.904;8.110;2022-07-18T04:28:09;10.70;99.90
21772;DHT22;11047;47.904;8.110;2022-07-18T04:30:38;10.60;99.90
21772;DHT22;11047;47.904;8.110;2022-07-18T04:33:07;10.60;99.90
21772;DHT22;11047;47.904;8.110;2022-07-18T04:35:35;10.60;99.90
21772;DHT22;11047;47.904;8.110;2022-07-18T04:38:03;10.70;99.90
21772;DHT22;11047;47.904;8.110;2022-07-18T04:40:31;10.60;99.90
21772;DHT22;11047;47.904;8.110;2022-07-18T04:42:57;10.70;99.90
21772;DHT22;11047;47.904;8.110;2022-07-18T04:45:24;10.70;99.90
21772;DHT22;11047;47.904;8.110;2022-07-18T04:47:53;10.70;99.90
21772;DHT22;11047;47.904;8.110;2022-07-18T04:50:22;10.80;99.90
21772;DHT22;11047;47.904;8.110;2022-07-18T04:52:49;10.90;99.90
21772;DHT22;11047;47.904;8.110;2022-07-18T04:55:18;10.90;99.90
21772;DHT22;11047;47.904;8.110;2022-07-18T04:57:46;10.90;99.90
21772;DHT22;11047;47.904;8.110;2022-07-18T05:00:15;11.00;99.90
21772;DHT22;11047;47.904;8.110;2022-07-18T05:02:44;11.10;99.90
21772;DHT22;11047;47.904;8.110;2022-07-18T05:05:14;11.20;99.90
21772;DHT22;11047;47.904;8.110;2022-07-18T05:07:43;11.20;99.90
21772;DHT22;11047;47.904;8.110;2022-07-18T05:10:12;11.30;99.90
21772;DHT22;11047;47.904;8.110;2022-07-18T05:12:41;11.30;99.90
21772;DHT22;11047;47.904;8.110;2022-07-18T05:15:10;11.40;99.90
21772;DHT22;11047;47.904;8.110;2022-07-18T05:17:37;11.50;99.90
21772;DHT22;11047;47.904;8.110;2022-07-18T05:20:06;11.50;99.90
21772;DHT22;11047;47.904;8.110;2022-07-18T05:22:35;11.70;99.90
21772;DHT22;11047;47.904;8.110;2022-07-18T05:25:04;11.90;99.90
21772;DHT22;11047;47.904;8.110;2022-07-18T05:27:31;12.00;99.90
21772;DHT22;11047;47.904;8.110;2022-07-18T05:29:58;12.20;99.90
21772;DHT22;11047;47.904;8.110;2022-07-18T05:32:25;12.30;99.90
21772;DHT22;11047;47.904;8.110;2022-07-18T05:34:52;12.40;99.90
21772;DHT22;11047;47.904;8.110;2022-07-18T05:37:19;12.50;99.90
21772;DHT22;11047;47.904;8.110;2022-07-18T05:39:48;12.70;99.90
21772;DHT22;11047;47.904;8.110;2022-07-18T05:42:17;12.80;99.90
21772;DHT22;11047;47.904;8.110;2022-07-18T05:44:44;12.90;99.90
21772;DHT22;11047;47.904;8.110;2022-07-18T05:47:11;12.90;99.90
21772;DHT22;11047;47.904;8.110;2022-07-18T05:49:39;13.00;99.90
21772;DHT22;11047;47.904;8.110;2022-07-18T05:52:06;13.10;99.90
21772;DHT22;11047;47.904;8.110;2022-07-18T05:54:33;13.20;99.90
21772;DHT22;11047;47.904;8.110;2022-07-18T05:57:02;13.30;99.90
21772;DHT22;11047;47.904;8.110;2022-07-18T05:59:29;13.40;99.90
21772;DHT22;11047;47.904;8.110;2022-07-18T06:01:56;13.40;99.90
21772;DHT22;11047;47.904;8.110;2022-07-18T06:04:23;13.60;99.90
21772;DHT22;11047;47.904;8.110;2022-07-18T06:06:50;13.70;99.90
21772;DHT22;11047;47.904;8.110;2022-07-18T06:09:17;13.70;99.90
21772;DHT22;11047;47.904;8.110;2022-07-18T06:11:44;13.90;99.90
21772;DHT22;11047;47.904;8.110;2022-07-18T06:14:13;13.90;99.90
21772;DHT22;11047;47.904;8.110;2022-07-18T06:16:40;14.00;99.90
21772;DHT22;11047;47.904;8.110;2022-07-18T06:19:07;14.20;99.90
21772;DHT22;11047;47.904;8.110;2022-07-18T06:21:34;14.30;99.90
21772;DHT22;11047;47.904;8.110;2022-07-18T06:24:02;14.40;99.90
21772;DHT22;11047;47.904;8.110;2022-07-18T06:26:29;14.50;99.90
21772;DHT22;11047;47.904;8.110;2022-07-18T06:28:55;14.60;99.90
21772;DHT22;11047;47.904;8.110;2022-07-18T06:31:24;14.80;99.90
21772;DHT22;11047;47.904;8.110;2022-07-18T06:33:51;14.90;99.90
21772;DHT22;11047;47.904;8.110;2022-07-18T06:36:17;15.00;99.90
21772;DHT22;11047;47.904;8.110;2022-07-18T06:38:47;15.10;99.90
21772;DHT22;11047;47.904;8.110;2022-07-18T06:41:14;15.20;99.90
21772;DHT22;11047;47.904;8.110;2022-07-18T06:43:41;15.40;99.90
21772;DHT22;11047;47.904;8.110;2022-07-18T06:46:08;15.50;99.90
21772;DHT22;11047;47.904;8.110;2022-07-18T06:48:36;15.60;99.90
21772;DHT22;11047;47.904;8.110;2022-07-18T06:51:04;15.80;99.90
21772;DHT22;11047;47.904;8.110;2022-07-18T06:53:32;16.00;99.90
21772;DHT22;11047;47.904;8.110;2022-07-18T06:55:59;16.10;99.90
21772;DHT22;11047;47.904;8.110;2022-07-18T06:58:28;16.30;99.90
21772;DHT22;11047;47.904;8.110;2022-07-18T07:00:56;16.50;99.90
21772;DHT22;11047;47.904;8.110;2022-07-18T07:03:23;16.60;99.90
21772;DHT22;11047;47.904;8.110;2022-07-18T07:05:51;16.80;99.90
21772;DHT22;11047;47.904;8.110;2022-07-18T07:08:18;17.00;99.90
21772;DHT22;11047;47.904;8.110;2022-07-18T07:10:45;17.20;99.90
21772;DHT22;11047;47.904;8.110;2022-07-18T07:13:12;17.40;99.90
21772;DHT22;11047;47.904;8.110;2022-07-18T07:15:39;17.70;99.90
21772;DHT22;11047;47.904;8.110;2022-07-18T07:18:08;17.90;99.90
21772;DHT22;11047;47.904;8.110;2022-07-18T07:20:35;18.30;99.90
21772;DHT22;11047;47.904;8.110;2022-07-18T07:23:04;18.50;99.90
21772;DHT22;11047;47.904;8.110;2022-07-18T07:25:33;18.80;99.90
21772;DHT22;11047;47.904;8.110;2022-07-18T07:28:01;19.10;99.90
21772;DHT22;11047;47.904;8.110;2022-07-18T07:30:28;19.50;99.90
21772;DHT22;11047;47.904;8.110;2022-07-18T07:32:55;19.90;99.90
21772;DHT22;11047;47.904;8.110;2022-07-18T07:35:22;20.30;99.90
21772;DHT22;11047;47.904;8.110;2022-07-18T07:37:51;20.70;99.90
21772;DHT22;11047;47.904;8.110;2022-07-18T07:40:21;21.10;99.90
21772;DHT22;11047;47.904;8.110;2022-07-18T07:42:48;21.50;99.90
21772;DHT22;11047;47.904;8.110;2022-07-18T07:45:15;21.90;99.90
21772;DHT22;11047;47.904;8.110;2022-07-18T07:47:42;22.00;99.90
21772;DHT22;11047;47.904;8.110;2022-07-18T07:50:11;22.50;99.90
21772;DHT22;11047;47.904;8.110;2022-07-18T07:52:38;22.90;99.90
21772;DHT22;11047;47.904;8.110;2022-07-18T07:55:06;23.40;99.90
21772;DHT22;11047;47.904;8.110;2022-07-18T07:57:34;23.50;99.90
21772;DHT22;11047;47.904;8.110;2022-07-18T08:00:04;23.80;99.90
21772;DHT22;11047;47.904;8.110;2022-07-18T08:02:32;24.10;99.90
21772;DHT22;11047;47.904;8.110;2022-07-18T08:04:59;24.30;99.90
21772;DHT22;11047;47.904;8.110;2022-07-18T08:07:26;24.60;99.90
21772;DHT22;11047;47.904;8.110;2022-07-18T08:09:53;25.00;99.90
21772;DHT22;11047;47.904;8.110;2022-07-18T08:12:20;25.30;99.90
21772;DHT22;11047;47.904;8.110;2022-07-18T08:14:48;25.50;99.90
21772;DHT22;11047;47.904;8.110;2022-07-18T08:17:17;25.70;99.90
21772;DHT22;11047;47.904;8.110;2022-07-18T08:19:43;26.10;99.90
21772;DHT22;11047;47.904;8.110;2022-07-18T08:22:10;26.40;98.60
21772;DHT22;11047;47.904;8.110;2022-07-18T08:24:37;26.60;99.90
21772;DHT22;11047;47.904;8.110;2022-07-18T08:27:04;26.80;98.30
21772;DHT22;11047;47.904;8.110;2022-07-18T08:29:32;26.70;97.30
21772;DHT22;11047;47.904;8.110;2022-07-18T08:32:00;27.20;97.70
21772;DHT22;11047;47.904;8.110;2022-07-18T08:34:27;27.40;96.80
21772;DHT22;11047;47.904;8.110;2022-07-18T08:36:54;27.60;98.20
21772;DHT22;11047;47.904;8.110;2022-07-18T08:39:21;27.80;96.90
21772;DHT22;11047;47.904;8.110;2022-07-18T08:41:50;27.90;95.20
21772;DHT22;11047;47.904;8.110;2022-07-18T08:44:17;28.30;99.90
21772;DHT22;11047;47.904;8.110;2022-07-18T08:46:49;28.40;94.40
21772;DHT22;11047;47.904;8.110;2022-07-18T08:49:18;28.70;93.20
21772;DHT22;11047;47.904;8.110;2022-07-18T08:51:44;29.00;93.50
21772;DHT22;11047;47.904;8.110;2022-07-18T08:54:12;28.80;92.20
21772;DHT22;11047;47.904;8.110;2022-07-18T08:56:39;29.10;91.40
21772;DHT22;11047;47.904;8.110;2022-07-18T08:59:06;29.20;91.40
21772;DHT22;11047;47.904;8.110;2022-07-18T09:01:33;29.20;90.60
21772;DHT22;11047;47.904;8.110;2022-07-18T09:04:00;29.20;89.80
21772;DHT22;11047;47.904;8.110;2022-07-18T09:06:47;29.30;89.50
21772;DHT22;11047;47.904;8.110;2022-07-18T09:09:15;29.50;87.80
21772;DHT22;11047;47.904;8.110;2022-07-18T09:11:53;29.90;89.40
21772;DHT22;11047;47.904;8.110;2022-07-18T09:14:28;29.80;88.70
21772;DHT22;11047;47.904;8.110;2022-07-18T09:17:00;30.10;87.30
21772;DHT22;11047;47.904;8.110;2022-07-18T09:19:27;30.10;86.50
21772;DHT22;11047;47.904;8.110;2022-07-18T09:22:14;30.20;87.70
21772;DHT22;11047;47.904;8.110;2022-07-18T09:24:54;30.30;86.00
21772;DHT22;11047;47.904;8.110;2022-07-18T09:27:26;30.50;86.10
21772;DHT22;11047;47.904;8.110;2022-07-18T09:30:14;30.90;88.50
21772;DHT22;11047;47.904;8.110;2022-07-18T09:32:43;31.00;87.10
21772;DHT22;11047;47.904;8.110;2022-07-18T09:35:12;31.20;82.90
21772;DHT22;11047;47.904;8.110;2022-07-18T09:37:55;31.30;87.10
21772;DHT22;11047;47.904;8.110;2022-07-18T09:40:24;31.40;86.00
21772;DHT22;11047;47.904;8.110;2022-07-18T09:42:53;30.80;86.40
21772;DHT22;11047;47.904;8.110;2022-07-18T09:45:25;31.10;85.70
21772;DHT22;11047;47.904;8.110;2022-07-18T09:47:54;31.40;84.70
21772;DHT22;11047;47.904;8.110;2022-07-18T09:50:23;31.60;84.10
21772;DHT22;11047;47.904;8.110;2022-07-18T09:53:11;31.30;82.30
21772;DHT22;11047;47.904;8.110;2022-07-18T09:55:43;31.70;85.40
21772;DHT22;11047;47.904;8.110;2022-07-18T09:58:11;31.80;83.80
21772;DHT22;11047;47.904;8.110;2022-07-18T10:00:39;31.80;84.30
21772;DHT22;11047;47.904;8.110;2022-07-18T10:03:07;32.00;82.90
21772;DHT22;11047;47.904;8.110;2022-07-18T10:05:36;32.10;80.80
21772;DHT22;11047;47.904;8.110;2022-07-18T10:08:06;32.40;82.20
21772;DHT22;11047;47.904;8.110;2022-07-18T10:10:33;32.50;79.30
21772;DHT22;11047;47.904;8.110;2022-07-18T10:13:01;32.20;80.10
21772;DHT22;11047;47.904;8.110;2022-07-18T10:15:30;32.40;80.90
21772;DHT22;11047;47.904;8.110;2022-07-18T10:17:58;32.40;81.50
21772;DHT22;11047;47.904;8.110;2022-07-18T10:20:27;32.60;79.20
21772;DHT22;11047;47.904;8.110;2022-07-18T10:22:57;32.80;79.50
21772;DHT22;11047;47.904;8.110;2022-07-18T10:25:26;32.70;79.00
21772;DHT22;11047;47.904;8.110;2022-07-18T10:28:01;33.00;81.60
21772;DHT22;11047;47.904;8.110;2022-07-18T10:30:34;32.70;78.80
21772;DHT22;11047;47.904;8.110;2022-07-18T10:33:03;32.90;78.80
21772;DHT22;11047;47.904;8.110;2022-07-18T10:35:59;33.10;81.10
21772;DHT22;11047;47.904;8.110;2022-07-18T10:38:27;33.50;78.60
21772;DHT22;11047;47.904;8.110;2022-07-18T10:41:10;33.00;76.80
21772;DHT22;11047;47.904;8.110;2022-07-18T10:43:43;33.00;77.20
21772;DHT22;11047;47.904;8.110;2022-07-18T10:46:11;33.20;76.90
21772;DHT22;11047;47.904;8.110;2022-07-18T10:49:02;33.30;76.30
21772;DHT22;11047;47.904;8.110;2022-07-18T10:51:32;33.30;76.60
21772;DHT22;11047;47.904;8.110;2022-07-18T10:54:09;33.50;75.90
21772;DHT22;11047;47.904;8.110;2022-07-18T10:57:05;33.60;76.90
21772;DHT22;11047;47.904;8.110;2022-07-18T10:59:33;33.00;76.50
21772;DHT22;11047;47.904;8.110;2022-07-18T11:02:07;33.30;77.60
21772;DHT22;11047;47.904;8.110;2022-07-18T11:04:40;33.50;78.20
21772;DHT22;11047;47.904;8.110;2022-07-18T11:07:12;33.50;78.40
21772;DHT22;11047;47.904;8.110;2022-07-18T11:09:42;33.50;75.30
21772;DHT22;11047;47.904;8.110;2022-07-18T11:12:28;33.70;74.90
21772;DHT22;11047;47.904;8.110;2022-07-18T11:15:12;34.00;75.80
21772;DHT22;11047;47.904;8.110;2022-07-18T11:18:00;34.10;73.90
21772;DHT22;11047;47.904;8.110;2022-07-18T11:20:36;34.30;74.60
21772;DHT22;11047;47.904;8.110;2022-07-18T11:23:04;34.30;74.90
21772;DHT22;11047;47.904;8.110;2022-07-18T11:25:31;34.00;75.00
21772;DHT22;11047;47.904;8.110;2022-07-18T11:28:00;33.70;74.80
21772;DHT22;11047;47.904;8.110;2022-07-18T11:30:29;33.60;74.10
21772;DHT22;11047;47.904;8.110;2022-07-18T11:32:56;33.80;73.30
21772;DHT22;11047;47.904;8.110;2022-07-18T11:35:23;34.10;73.80
21772;DHT22;11047;47.904;8.110;2022-07-18T11:37:52;33.70;73.70
21772;DHT22;11047;47.904;8.110;2022-07-18T11:40:21;33.90;75.80
21772;DHT22;11047;47.904;8.110;2022-07-18T11:42:48;34.30;73.70
21772;DHT22;11047;47.904;8.110;2022-07-18T11:45:17;34.30;74.10
21772;DHT22;11047;47.904;8.110;2022-07-18T11:47:48;33.90;72.90
21772;DHT22;11047;47.904;8.110;2022-07-18T11:50:16;34.10;74.30
21772;DHT22;11047;47.904;8.110;2022-07-18T11:52:44;33.80;73.30
21772;DHT22;11047;47.904;8.110;2022-07-18T11:55:12;34.10;74.20
21772;DHT22;11047;47.904;8.110;2022-07-18T11:57:39;33.60;72.10
21772;DHT22;11047;47.904;8.110;2022-07-18T12:00:19;33.70;73.50
21772;DHT22;11047;47.904;8.110;2022-07-18T12:02:46;32.80;73.30
21772;DHT22;11047;47.904;8.110;2022-07-18T12:05:13;33.40;74.00
21772;DHT22;11047;47.904;8.110;2022-07-18T12:07:40;33.20;72.70
21772;DHT22;11047;47.904;8.110;2022-07-18T12:10:17;33.50;74.60
21772;DHT22;11047;47.904;8.110;2022-07-18T12:12:44;33.10;73.00
21772;DHT22;11047;47.904;8.110;2022-07-18T12:15:13;33.20;74.10
21772;DHT22;11047;47.904;8.110;2022-07-18T12:17:45;33.00;73.20
21772;DHT22;11047;47.904;8.110;2022-07-18T12:20:15;33.40;73.10
21772;DHT22;11047;47.904;8.110;2022-07-18T12:23:04;33.40;74.00
21772;DHT22;11047;47.904;8.110;2022-07-18T12:25:55;33.50;73.80
21772;DHT22;11047;47.904;8.110;2022-07-18T12:28:24;33.40;73.50
21772;DHT22;11047;47.904;8.110;2022-07-18T12:30:52;33.30;73.10
21772;DHT22;11047;47.904;8.110;2022-07-18T12:33:21;33.70;73.30
21772;DHT22;11047;47.904;8.110;2022-07-18T12:35:55;34.10;73.60
21772;DHT22;11047;47.904;8.110;2022-07-18T12:38:22;34.30;72.70
21772;DHT22;11047;47.904;8.110;2022-07-18T12:40:51;34.30;72.50
21772;DHT22;11047;47.904;8.110;2022-07-18T12:43:25;34.20;74.50
21772;DHT22;11047;47.904;8.110;2022-07-18T12:45:52;34.30;72.70
21772;DHT22;11047;47.904;8.110;2022-07-18T12:48:21;34.30;76.50
21772;DHT22;11047;47.904;8.110;2022-07-18T12:50:56;34.00;79.00
21772;DHT22;11047;47.904;8.110;2022-07-18T12:53:25;34.10;79.40
21772;DHT22;11047;47.904;8.110;2022-07-18T12:55:52;33.90;77.90
21772;DHT22;11047;47.904;8.110;2022-07-18T12:58:19;33.80;79.00
21772;DHT22;11047;47.904;8.110;2022-07-18T13:00:47;33.40;80.60
21772;DHT22;11047;47.904;8.110;2022-07-18T13:03:14;33.10;81.00
21772;DHT22;11047;47.904;8.110;2022-07-18T13:05:43;33.20;80.20
21772;DHT22;11047;47.904;8.110;2022-07-18T13:08:10;33.30;80.40
21772;DHT22;11047;47.904;8.110;2022-07-18T13:10:37;33.20;78.70
21772;DHT22;11047;47.904;8.110;2022-07-18T13:13:06;33.50;79.00
21772;DHT22;11047;47.904;8.110;2022-07-18T13:15:34;33.40;78.10
21772;DHT22;11047;47.904;8.110;2022-07-18T13:18:01;33.30;78.50
21772;DHT22;11047;47.904;8.110;2022-07-18T13:20:28;33.20;80.00
21772;DHT22;11047;47.904;8.110;2022-07-18T13:22:58;32.90;81.10
21772;DHT22;11047;47.904;8.110;2022-07-18T13:25:27;33.00;79.80
21772;DHT22;11047;47.904;8.110;2022-07-18T13:27:54;33.10;80.80
21772;DHT22;11047;47.904;8.110;2022-07-18T13:30:21;33.20;81.30
21772;DHT22;11047;47.904;8.110;2022-07-18T13:32:48;33.20;80.70
21772;DHT22;11047;47.904;8.110;2022-07-18T13:35:15;33.20;80.40
21772;DHT22;11047;47.904;8.110;2022-07-18T13:37:43;33.10;81.80
21772;DHT22;11047;47.904;8.110;2022-07-18T13:40:12;33.20;81.10
21772;DHT22;11047;47.904;8.110;2022-07-18T13:42:39;33.10;81.20
21772;DHT22;11047;47.904;8.110;2022-07-18T13:45:08;32.90;81.60
21772;DHT22;11047;47.904;8.110;2022-07-18T13:47:35;33.00;81.20
21772;DHT22;11047;47.904;8.110;2022-07-18T13:50:03;33.10;81.60
21772;DHT22;11047;47.904;8.110;2022-07-18T13:52:31;33.10;81.80
21772;DHT22;11047;47.904;8.110;2022-07-18T13:54:58;33.10;80.50
21772;DHT22;11047;47.904;8.110;2022-07-18T13:57:26;33.00;80.70
21772;DHT22;11047;47.904;8.110;2022-07-18T13:59:53;33.00;82.60
21772;DHT22;11047;47.904;8.110;2022-07-18T14:02:20;32.80;82.30
21772;DHT22;11047;47.904;8.110;2022-07-18T14:04:47;32.80;82.20
21772;DHT22;11047;47.904;8.110;2022-07-18T14:07:14;32.50;81.70
21772;DHT22;11047;47.904;8.110;2022-07-18T14:09:43;32.70;82.60
21772;DHT22;11047;47.904;8.110;2022-07-18T14:12:10;32.50;82.20
21772;DHT22;11047;47.904;8.110;2022-07-18T14:14:38;32.70;82.50
21772;DHT22;11047;47.904;8.110;2022-07-18T14:17:05;32.20;82.80
21772;DHT22;11047;47.904;8.110;2022-07-18T14:19:32;32.30;83.10
21772;DHT22;11047;47.904;8.110;2022-07-18T14:22:02;32.30;83.90
21772;DHT22;11047;47.904;8.110;2022-07-18T14:24:29;32.50;83.30
21772;DHT22;11047;47.904;8.110;2022-07-18T14:26:56;32.60;83.20
21772;DHT22;11047;47.904;8.110;2022-07-18T14:29:23;32.20;83.30
21772;DHT22;11047;47.904;8.110;2022-07-18T14:31:51;32.30;83.20
21772;DHT22;11047;47.904;8.110;2022-07-18T14:34:18;32.30;82.90
21772;DHT22;11047;47.904;8.110;2022-07-18T14:36:45;32.30;83.60
21772;DHT22;11047;47.904;8.110;2022-07-18T14:39:11;32.10;83.30
21772;DHT22;11047;47.904;8.110;2022-07-18T14:41:38;32.00;83.60
21772;DHT22;11047;47.904;8.110;2022-07-18T14:44:05;31.80;83.60
21772;DHT22;11047;47.904;8.110;2022-07-18T14:46:32;31.90;83.70
21772;DHT22;11047;47.904;8.110;2022-07-18T14:49:00;32.10;84.90
21772;DHT22;11047;47.904;8.110;2022-07-18T14:51:27;31.90;84.00
21772;DHT22;11047;47.904;8.110;2022-07-18T14:53:54;31.90;84.10
21772;DHT22;11047;47.904;8.110;2022-07-18T14:56:21;31.70;84.50
21772;DHT22;11047;47.904;8.110;2022-07-18T14:58:51;31.60;83.10
21772;DHT22;11047;47.904;8.110;2022-07-18T15:01:18;31.90;84.20
21772;DHT22;11047;47.904;8.110;2022-07-18T15:03:46;31.70;84.10
21772;DHT22;11047;47.904;8.110;2022-07-18T15:06:14;31.80;84.20
21772;DHT22;11047;47.904;8.110;2022-07-18T15:08:41;31.70;84.40
21772;DHT22;11047;47.904;8.110;2022-07-18T15:11:08;31.60;85.60
21772;DHT22;11047;47.904;8.110;2022-07-18T15:13:35;31.50;84.50
21772;DHT22;11047;47.904;8.110;2022-07-18T15:16:02;31.50;84.40
21772;DHT22;11047;47.904;8.110;2022-07-18T15:18:29;31.50;85.30
21772;DHT22;11047;47.904;8.110;2022-07-18T15:20:56;31.50;85.00
21772;DHT22;11047;47.904;8.110;2022-07-18T15:23:24;31.30;85.10
21772;DHT22;11047;47.904;8.110;2022-07-18T15:25:51;31.20;85.20
21772;DHT22;11047;47.904;8.110;2022-07-18T15:28:18;31.30;85.60
21772;DHT22;11047;47.904;8.110;2022-07-18T15:30:47;31.30;85.10
21772;DHT22;11047;47.904;8.110;2022-07-18T15:33:14;31.20;85.70
21772;DHT22;11047;47.904;8.110;2022-07-18T15:35:41;31.10;87.30
21772;DHT22;11047;47.904;8.110;2022-07-18T15:38:08;31.10;87.30
21772;DHT22;11047;47.904;8.110;2022-07-18T15:40:36;31.00;86.80
21772;DHT22;11047;47.904;8.110;2022-07-18T15:43:03;31.00;85.20
21772;DHT22;11047;47.904;8.110;2022-07-18T15:45:30;31.00;85.90
21772;DHT22;11047;47.904;8.110;2022-07-18T15:47:57;31.00;87.70
21772;DHT22;11047;47.904;8.110;2022-07-18T15:50:24;30.80;85.80
21772;DHT22;11047;47.904;8.110;2022-07-18T15:52:51;30.70;87.00
21772;DHT22;11047;47.904;8.110;2022-07-18T15:55:18;30.70;86.40